Terminal Aerodrome Forecast
Issued by NWS

Home | Current Version | Previous Version | Text Only | Print | Product List | Glossary Off
Versions: 1 2 3 4 5 6 7 8 9 10 11 12 13 14 15 16 17 18

000
FTUS42 KMHX 271729
TAFPGV
TAF
KPGV 271729Z 2718/2818 05008KT P6SM SCT030 BKN050
     FM280000 03004KT P6SM SCT025 BKN100
     FM281200 05009KT P6SM SCT030
      AMD LTD TO CLD VIS AND WIND=

USA.gov is the U.S. government's official web portal to all federal, state and local government web resources and services.